Time;durP1;ratioP1;P1;durP2;ratioP2;P2;SDS_P1;SDS_P2;PMS_P1;PMS_P2;Temp;Humidity;BMP_temperature;BMP_pressure;BME280_temperature;BME280_humidity;BME280_pressure;Samples;Min_cycle;Max_cycle;Signal;HPM_P1;HPM_P2
2022/09/15 00:03:42;;;;;;;16.67;13.48;;;;;;;18.03;100.00;98777.73;2911535;80;21069;-63
2022/09/15 00:07:44;;;;;;;22.02;18.82;;;;;;;17.94;100.00;98782.48;2910477;79;20963;-62
2022/09/15 00:11:45;;;;;;;22.87;16.85;;;;;;;17.91;100.00;98788.30;2901776;81;21029;-72
2022/09/15 00:15:50;;;;;;;25.72;19.62;;;;;;;17.82;100.00;98782.84;2907918;82;21009;-73
2022/09/15 00:19:52;;;;;;;29.02;21.30;;;;;;;17.73;100.00;98784.93;2908329;82;21053;-77
2022/09/15 00:24:01;;;;;;;24.90;20.27;;;;;;;17.67;100.00;98788.44;2908200;82;20962;-76
2022/09/15 00:28:02;;;;;;;25.08;21.57;;;;;;;17.65;100.00;98795.89;2908164;82;21018;-75
2022/09/15 00:41:10;;;;;;;17.93;16.00;;;;;;;17.46;100.00;98783.59;2864567;81;21572;-89
2022/09/15 00:45:16;;;;;;;23.77;14.43;;;;;;;17.39;100.00;98794.88;2864987;81;21773;-90
2022/09/15 00:49:22;;;;;;;16.25;11.90;;;;;;;17.34;100.00;98800.06;2864832;81;21013;-89
2022/09/15 00:53:25;;;;;;;11.80;9.83;;;;;;;17.31;100.00;98813.91;2864403;81;21536;-88
2022/09/15 00:57:58;;;;;;;12.43;9.15;;;;;;;17.23;100.00;98815.75;2864263;81;21078;-89
2022/09/15 01:02:05;;;;;;;12.40;8.18;;;;;;;17.17;100.00;98811.20;2864905;81;21009;-88
2022/09/15 01:06:12;;;;;;;13.22;9.10;;;;;;;17.06;100.00;98803.23;2864221;81;21100;-88
2022/09/15 01:10:19;;;;;;;10.80;9.08;;;;;;;17.04;100.00;98807.98;2864312;81;21009;-89
2022/09/15 01:14:20;;;;;;;19.42;11.00;;;;;;;16.99;100.00;98818.00;2865089;81;21032;-88
2022/09/15 01:18:27;;;;;;;12.53;8.28;;;;;;;16.92;100.00;98823.84;2865113;81;21104;-87
2022/09/15 01:22:51;;;;;;;10.30;7.55;;;;;;;16.84;100.00;98824.86;2865475;81;21100;-87
2022/09/15 01:27:30;;;;;;;9.03;7.53;;;;;;;16.78;100.00;98822.16;2861412;81;21131;-88
2022/09/15 01:33:02;;;;;;;11.48;7.17;;;;;;;16.73;100.00;98821.94;2864024;81;21556;-88
2022/09/15 01:35:57;;;;;;;14.07;6.30;;;;;;;16.70;100.00;98814.61;2861269;81;21028;-87
2022/09/15 01:40:00;;;;;;;10.32;7.25;;;;;;;16.69;100.00;98812.11;2834920;81;21042;-87
2022/09/15 01:44:13;;;;;;;10.32;7.90;;;;;;;16.68;100.00;98817.17;2819062;83;21546;-86
2022/09/15 01:48:19;;;;;;;7.62;6.42;;;;;;;16.70;100.00;98828.03;2817705;83;21034;-87
2022/09/15 01:52:22;;;;;;;10.55;7.12;;;;;;;16.64;100.00;98834.18;2818168;83;21563;-87
2022/09/15 01:56:24;;;;;;;12.15;7.37;;;;;;;16.63;100.00;98840.58;2818063;83;20990;-87
2022/09/15 02:00:25;;;;;;;9.13;6.45;;;;;;;16.59;100.00;98848.73;2817621;83;21042;-87
2022/09/15 02:04:52;;;;;;;12.53;6.10;;;;;;;16.52;100.00;98850.04;2817863;83;21616;-87
2022/09/15 02:08:59;;;;;;;13.45;7.40;;;;;;;16.45;100.00;98844.33;2817821;83;21613;-88
2022/09/15 02:13:23;;;;;;;10.55;7.72;;;;;;;16.44;100.00;98857.42;2817582;83;21074;-88
2022/09/15 02:17:28;;;;;;;9.10;7.65;;;;;;;16.42;100.00;98849.06;2818115;83;21034;-92
2022/09/15 02:21:41;;;;;;;11.55;6.87;;;;;;;16.33;100.00;98854.30;2818474;83;21034;-93
2022/09/15 02:25:50;;;;;;;9.58;6.05;;;;;;;16.32;100.00;98845.94;2820502;82;20982;-94
2022/09/15 02:29:56;;;;;;;15.98;6.78;;;;;;;16.27;100.00;98843.84;2818924;83;21065;-93
2022/09/15 02:34:02;;;;;;;20.27;7.75;;;;;;;16.24;100.00;98855.47;2835026;82;21137;-90
2022/09/15 02:38:08;;;;;;;8.45;6.15;;;;;;;16.15;100.00;98849.97;2827411;82;21998;-93
2022/09/15 02:42:09;;;;;;;13.75;6.65;;;;;;;16.15;100.00;98857.48;2818139;83;21175;-91
2022/09/15 02:46:11;;;;;;;6.37;5.58;;;;;;;16.09;100.00;98855.07;2793452;83;21002;-91
2022/09/15 02:50:13;;;;;;;7.37;5.92;;;;;;;16.03;100.00;98861.77;2818367;83;21026;-89
2022/09/15 02:54:14;;;;;;;8.90;4.95;;;;;;;15.97;100.00;98876.77;2818099;83;21007;-90
2022/09/15 02:58:15;;;;;;;11.28;6.35;;;;;;;15.97;100.00;98870.07;2817898;83;21042;-89
2022/09/15 03:02:19;;;;;;;10.25;6.08;;;;;;;15.98;100.00;98869.05;2817748;83;21022;-90
2022/09/15 03:06:20;;;;;;;7.58;5.78;;;;;;;16.01;100.00;98882.55;2818070;83;20990;-90
2022/09/15 03:10:23;;;;;;;6.42;5.55;;;;;;;15.97;100.00;98873.56;2817956;83;21073;-89
2022/09/15 03:14:25;;;;;;;14.80;6.40;;;;;;;15.98;100.00;98878.44;2817985;83;21045;-89
2022/09/15 03:18:26;;;;;;;7.80;5.50;;;;;;;15.93;100.00;98882.22;2817782;83;21535;-89
2022/09/15 03:22:27;;;;;;;8.45;6.97;;;;;;;15.92;100.00;98885.40;2817816;83;21022;-89
2022/09/15 03:26:29;;;;;;;13.03;6.15;;;;;;;15.90;100.00;98905.38;2817874;83;21566;-89
2022/09/15 03:30:31;;;;;;;10.78;6.85;;;;;;;15.73;100.00;98918.20;2817858;83;20971;-89
2022/09/15 03:34:32;;;;;;;9.45;5.78;;;;;;;15.71;100.00;98913.88;2821307;83;21002;-89
2022/09/15 03:38:34;;;;;;;6.78;4.55;;;;;;;15.72;100.00;98912.00;2821327;83;21014;-88
2022/09/15 03:42:35;;;;;;;7.80;5.40;;;;;;;15.70;100.00;98910.03;2843468;82;21053;-87
2022/09/15 03:46:36;;;;;;;8.65;5.10;;;;;;;15.60;100.00;98925.63;2844176;82;21006;-88
2022/09/15 03:50:37;;;;;;;9.38;6.65;;;;;;;15.61;100.00;98917.91;2843698;82;21631;-88
2022/09/15 03:54:39;;;;;;;12.03;6.78;;;;;;;15.63;100.00;98910.50;2843275;82;21025;-87
2022/09/15 03:58:40;;;;;;;16.60;8.78;;;;;;;15.66;100.00;98922.17;2844394;82;21053;-88
2022/09/15 04:02:42;;;;;;;10.40;7.37;;;;;;;15.66;100.00;98916.31;2844391;82;21072;-87
2022/09/15 04:06:43;;;;;;;15.43;10.68;;;;;;;15.65;100.00;98925.38;2842998;82;21506;-88
2022/09/15 04:10:45;;;;;;;14.58;8.80;;;;;;;15.66;100.00;98926.19;2843829;82;21314;-87
2022/09/15 04:14:46;;;;;;;11.35;8.58;;;;;;;15.58;100.00;98926.33;2843422;82;21018;-88
2022/09/15 04:18:49;;;;;;;9.25;7.12;;;;;;;15.63;100.00;98934.62;2696504;86;21632;-87
2022/09/15 04:22:50;;;;;;;9.93;4.92;;;;;;;15.60;100.00;98929.64;2843326;82;21009;-88
2022/09/15 04:26:51;;;;;;;10.48;6.50;;;;;;;15.48;100.00;98932.83;2843539;82;21021;-87
2022/09/15 04:30:57;;;;;;;10.90;6.37;;;;;;;15.49;100.00;98941.18;2809930;82;21057;-87
2022/09/15 04:34:59;;;;;;;10.82;6.80;;;;;;;15.48;100.00;98950.24;2814584;82;21548;-86
2022/09/15 04:39:00;;;;;;;12.33;7.15;;;;;;;15.45;100.00;98937.76;2786649;82;20986;-88
2022/09/15 04:43:01;;;;;;;8.68;4.92;;;;;;;15.39;100.00;98932.64;2843452;82;21077;-90
2022/09/15 04:47:03;;;;;;;13.50;6.95;;;;;;;15.36;100.00;98934.37;2843594;82;21033;-95
2022/09/15 04:51:09;;;;;;;14.73;7.28;;;;;;;15.40;100.00;98936.45;2843921;82;21010;-88
2022/09/15 04:55:10;;;;;;;;;;;;;;;15.47;100.00;98939.20;2846809;82;21025;-88
2022/09/15 04:59:17;;;;;;;7.95;4.75;;;;;;;15.44;100.00;98939.59;2805993;82;20128;-87
2022/09/15 05:03:18;;;;;;;14.10;7.80;;;;;;;15.37;100.00;98945.41;2843276;82;21002;-88
2022/09/15 05:07:19;;;;;;;13.03;8.15;;;;;;;15.42;100.00;98936.28;2843634;82;21001;-87
2022/09/15 05:11:21;;;;;;;15.13;8.33;;;;;;;15.53;100.00;98953.20;2843586;82;21073;-87
2022/09/15 05:15:23;;;;;;;11.88;6.55;;;;;;;15.62;100.00;98950.38;2843644;82;21076;-93
2022/09/15 05:19:24;;;;;;;18.30;8.48;;;;;;;15.65;100.00;98955.36;2801602;82;21056;-85
2022/09/15 05:23:25;;;;;;;13.18;7.80;;;;;;;15.68;100.00;98968.37;2843996;82;21061;-86
2022/09/15 05:27:32;;;;;;;9.70;7.40;;;;;;;15.71;100.00;98969.32;2867188;81;21022;-86
2022/09/15 05:31:34;;;;;;;10.30;8.50;;;;;;;15.77;100.00;98972.59;2843403;81;21510;-87
2022/09/15 05:35:35;;;;;;;10.53;6.87;;;;;;;15.80;100.00;98977.57;2842325;82;20998;-87
2022/09/15 05:39:38;;;;;;;10.75;7.22;;;;;;;15.76;100.00;98974.96;2843240;82;21033;-86
2022/09/15 05:43:39;;;;;;;12.80;8.48;;;;;;;15.71;100.00;98981.38;2842957;82;21013;-86
2022/09/15 05:47:41;;;;;;;16.42;9.03;;;;;;;15.68;100.00;98980.43;2843376;82;21057;-86
2022/09/15 05:51:42;;;;;;;11.03;8.23;;;;;;;15.79;100.00;98981.27;2842864;82;21002;-86
2022/09/15 05:55:43;;;;;;;19.62;8.48;;;;;;;15.97;100.00;98980.84;2843059;82;21057;-86
2022/09/15 05:59:44;;;;;;;8.53;5.83;;;;;;;15.93;100.00;98982.78;2843165;82;21092;-86
2022/09/15 06:03:46;;;;;;;9.03;5.67;;;;;;;15.89;100.00;98981.48;2842342;82;21005;-87
2022/09/15 06:07:54;;;;;;;9.20;6.55;;;;;;;15.75;100.00;98974.64;2843235;82;21050;-86
2022/09/15 06:11:55;;;;;;;8.95;5.40;;;;;;;15.62;100.00;98963.26;2843625;82;20958;-86
2022/09/15 06:16:07;;;;;;;11.08;8.75;;;;;;;15.61;100.00;98955.42;2835043;82;20963;-86
2022/09/15 06:20:09;;;;;;;13.20;7.92;;;;;;;15.91;100.00;98966.02;2844530;82;21528;-86
2022/09/15 06:24:11;;;;;;;9.53;6.80;;;;;;;15.94;100.00;98973.70;2844291;82;21025;-86
2022/09/15 06:28:12;;;;;;;12.25;5.28;;;;;;;15.88;100.00;98970.41;2845483;82;21017;-87
2022/09/15 06:32:13;;;;;;;9.55;6.58;;;;;;;15.79;100.00;98971.89;2844580;82;21033;-87
2022/09/15 06:36:19;;;;;;;7.85;6.40;;;;;;;16.03;100.00;98971.19;2832899;82;21049;-86
2022/09/15 06:40:20;;;;;;;9.58;5.70;;;;;;;16.19;100.00;98974.09;2843703;82;21058;-87
2022/09/15 06:44:22;;;;;;;6.03;4.42;;;;;;;16.22;100.00;98979.59;2843644;82;20971;-87
2022/09/15 06:48:23;;;;;;;9.55;5.90;;;;;;;16.46;100.00;98976.14;2844125;82;21592;-88
2022/09/15 06:52:24;;;;;;;11.97;4.80;;;;;;;16.77;100.00;98982.94;2843934;82;21057;-88
2022/09/15 06:56:26;;;;;;;13.58;7.12;;;;;;;16.98;100.00;98981.53;2843425;82;21528;-88
2022/09/15 07:00:28;;;;;;;8.10;4.97;;;;;;;17.10;100.00;98987.69;2843329;82;20998;-88
2022/09/15 07:04:29;;;;;;;11.95;5.25;;;;;;;17.16;100.00;98994.09;2843351;82;21078;-88
2022/09/15 07:08:31;;;;;;;10.88;6.10;;;;;;;17.21;100.00;98997.84;2843621;82;21029;-89
2022/09/15 07:12:32;;;;;;;9.30;5.33;;;;;;;17.05;100.00;99007.59;2843005;82;21061;-89
2022/09/15 07:16:33;;;;;;;6.67;4.78;;;;;;;17.23;100.00;99005.18;2842967;82;21017;-88
2022/09/15 07:20:37;;;;;;;6.42;4.50;;;;;;;17.23;100.00;99008.41;2843754;82;21023;-89
2022/09/15 07:24:39;;;;;;;11.18;4.85;;;;;;;17.15;100.00;99017.46;2806902;82;21061;-89
2022/09/15 07:28:44;;;;;;;11.90;5.55;;;;;;;17.37;100.00;99016.80;2843593;83;20970;-89
2022/09/15 07:32:45;;;;;;;11.85;5.15;;;;;;;17.39;100.00;99020.64;2842691;82;21045;-89
2022/09/15 07:36:46;;;;;;;9.00;6.58;;;;;;;17.43;100.00;99029.96;2806074;82;21096;-89
2022/09/15 07:40:48;;;;;;;6.55;4.67;;;;;;;17.35;100.00;99026.12;2852112;82;21021;-88
2022/09/15 07:44:49;;;;;;;7.20;5.53;;;;;;;17.23;100.00;99034.74;2864805;82;21068;-85
2022/09/15 07:48:55;;;;;;;7.60;5.55;;;;;;;17.32;100.00;99037.27;2865632;81;20997;-85
2022/09/15 07:52:56;;;;;;;12.95;5.40;;;;;;;17.69;100.00;99048.56;2803331;83;21028;-84
2022/09/15 07:56:58;;;;;;;14.87;6.30;;;;;;;18.04;100.00;99056.51;2798048;83;21024;-84
2022/09/15 08:01:09;;;;;;;10.48;6.00;;;;;;;18.10;100.00;99054.36;2844456;82;21005;-85
2022/09/15 08:05:11;;;;;;;10.75;5.17;;;;;;;17.91;100.00;99063.20;2845059;82;21343;-85
2022/09/15 08:09:13;;;;;;;11.57;5.97;;;;;;;17.97;100.00;99066.41;2844534;82;21650;-86
2022/09/15 08:13:15;;;;;;;11.03;5.90;;;;;;;17.98;100.00;99060.00;2835172;82;21987;-86
2022/09/15 08:17:16;;;;;;;20.60;6.15;;;;;;;18.19;100.00;99064.91;2844375;82;20994;-86
2022/09/15 08:21:19;;;;;;;9.53;5.15;;;;;;;18.21;100.00;99058.80;2844124;82;21146;-86
2022/09/15 08:25:20;;;;;;;9.58;5.60;;;;;;;18.23;100.00;99064.80;2837152;82;21044;-86
2022/09/15 08:29:22;;;;;;;9.28;6.92;;;;;;;18.43;100.00;99060.79;2826067;82;21033;-86
2022/09/15 08:33:24;;;;;;;9.28;4.55;;;;;;;18.71;100.00;99052.98;2844071;82;21057;-87
2022/09/15 08:37:25;;;;;;;8.85;4.37;;;;;;;18.81;99.57;99042.63;2845049;82;20994;-86
2022/09/15 08:41:34;;;;;;;8.50;3.92;;;;;;;18.92;100.00;99053.27;2776244;84;20990;-87
2022/09/15 08:45:52;;;;;;;11.85;5.45;;;;;;;18.78;100.00;99043.55;2812543;83;21021;-87
2022/09/15 08:49:58;;;;;;;10.05;4.47;;;;;;;18.82;99.59;99043.44;2813259;84;21032;-87
2022/09/15 08:54:05;;;;;;;9.65;4.80;;;;;;;18.89;98.30;99049.66;2812969;83;21021;-88
2022/09/15 08:58:16;;;;;;;15.45;4.90;;;;;;;19.10;100.00;99051.80;2744515;86;21155;-86
2022/09/15 09:02:47;;;;;;;7.17;5.35;;;;;;;19.22;99.85;99036.61;2813233;83;21002;-87
2022/09/15 09:07:23;;;;;;;7.75;4.97;;;;;;;19.31;99.12;99041.78;2719003;85;21016;-85
2022/09/15 09:11:39;;;;;;;11.53;3.80;;;;;;;19.46;100.00;99032.91;2760785;84;21550;-86
2022/09/15 09:16:08;;;;;;;;;;;;;;;19.45;95.40;99031.76;2856327;82;21243;-87
2022/09/15 09:20:36;;;;;;;11.30;3.80;;;;;;;19.45;97.94;99037.16;2829339;83;20117;-86
2022/09/15 09:24:45;;;;;;;11.45;4.62;;;;;;;19.34;96.04;99040.00;2813328;83;21037;-86
2022/09/15 09:29:00;;;;;;;12.45;3.62;;;;;;;19.31;96.60;99045.29;2813448;83;20993;-86
2022/09/15 09:33:31;;;;;;;4.50;3.12;;;;;;;19.03;94.61;99051.83;2813442;83;21517;-86
2022/09/15 09:37:32;;;;;;;4.83;3.92;;;;;;;18.86;94.01;99046.01;2810711;83;21068;-86
2022/09/15 09:41:37;;;;;;;8.73;4.08;;;;;;;18.88;97.90;99037.22;2825430;82;20974;-86
2022/09/15 09:45:39;;;;;;;8.28;4.20;;;;;;;18.78;96.65;99030.92;2804736;83;21002;-85
2022/09/15 09:49:47;;;;;;;5.62;3.58;;;;;;;19.01;100.00;99035.55;2804688;83;21561;-86
2022/09/15 09:53:52;;;;;;;10.18;3.45;;;;;;;19.09;95.94;99048.27;2804371;83;21045;-85
2022/09/15 09:57:57;;;;;;;19.27;4.00;;;;;;;19.19;98.60;99044.31;2804558;83;21018;-87
2022/09/15 10:02:15;;;;;;;4.50;3.80;;;;;;;18.93;91.22;99033.87;2803286;83;21026;-86
2022/09/15 10:06:21;;;;;;;11.28;3.65;;;;;;;18.85;96.18;99026.84;2804195;83;20966;-86
2022/09/15 10:10:23;;;;;;;;;;;;;;;18.91;93.27;99028.72;2806999;83;21501;-86
2022/09/15 10:14:30;;;;;;;5.45;4.30;;;;;;;19.03;96.66;99026.73;2804565;83;20105;-85
2022/09/15 10:18:36;;;;;;;6.85;3.95;;;;;;;19.21;94.31;99025.52;2804307;83;21010;-86
2022/09/15 10:22:40;;;;;;;6.37;4.22;;;;;;;19.43;92.52;99015.78;2804648;83;21033;-86
2022/09/15 10:26:43;;;;;;;9.75;4.65;;;;;;;19.70;94.25;99018.34;2804862;83;21021;-86
2022/09/15 10:31:15;;;;;;;9.73;5.22;;;;;;;20.00;94.87;99016.41;2804399;83;21037;-86
2022/09/15 10:35:18;;;;;;;12.70;5.58;;;;;;;19.86;87.41;99022.39;2804670;83;21021;-86
2022/09/15 10:39:44;;;;;;;6.67;3.90;;;;;;;20.16;90.75;99015.56;2804646;83;21125;-86
2022/09/15 10:44:13;;;;;;;11.08;4.30;;;;;;;20.06;86.14;99015.55;2804414;83;21520;-86
2022/09/15 10:48:44;;;;;;;8.20;3.77;;;;;;;19.90;86.63;99018.20;2804119;83;21042;-86
2022/09/15 10:53:10;;;;;;;10.68;3.90;;;;;;;19.80;90.31;99004.38;2804801;83;21017;-86
2022/09/15 10:57:58;;;;;;;6.45;3.37;;;;;;;19.62;91.00;99001.06;2804367;83;21136;-85
2022/09/15 11:02:13;;;;;;;5.58;3.42;;;;;;;19.66;88.46;99005.00;2762421;85;21037;-85
2022/09/15 11:06:26;;;;;;;12.40;3.37;;;;;;;19.78;90.81;99012.69;2769109;83;21038;-84
2022/09/15 11:10:52;;;;;;;4.47;3.17;;;;;;;19.69;87.32;98999.98;2763369;85;21017;-85
2022/09/15 11:15:12;;;;;;;;;;;;;;;19.46;86.20;99000.55;2767039;85;21053;-84
2022/09/15 11:19:41;;;;;;;7.10;3.45;;;;;;;19.72;87.34;98998.73;2763542;85;20142;-84
2022/09/15 11:24:12;;;;;;;6.95;3.77;;;;;;;19.99;91.28;99001.26;2779575;85;21049;-84
2022/09/15 11:28:34;;;;;;;7.30;3.50;;;;;;;20.11;88.32;98995.97;2765845;84;21130;-84
2022/09/15 11:33:00;;;;;;;4.45;2.42;;;;;;;19.94;84.23;98984.91;2806341;84;21025;-84
2022/09/15 11:37:22;;;;;;;5.25;2.85;;;;;;;19.98;80.88;98988.30;2775478;84;21062;-85
2022/09/15 11:41:56;;;;;;;4.75;3.02;;;;;;;19.89;81.14;98983.36;2735317;85;21113;-85
2022/09/15 11:46:00;;;;;;;8.45;3.62;;;;;;;20.06;85.30;98986.37;2744103;85;21058;-84
2022/09/15 11:50:28;;;;;;;7.65;3.17;;;;;;;20.12;83.72;98983.62;2736454;84;21528;-85
2022/09/15 11:54:50;;;;;;;4.35;2.58;;;;;;;20.09;78.96;98990.81;2734154;84;20999;-84
2022/09/15 11:59:41;;;;;;;7.03;3.67;;;;;;;20.19;81.78;98984.08;2716656;84;21066;-84
2022/09/15 12:04:02;;;;;;;10.38;4.03;;;;;;;20.10;82.77;98984.36;2829267;83;21007;-85
2022/09/15 12:08:17;;;;;;;3.92;2.80;;;;;;;20.02;80.63;98972.48;2818511;84;21010;-84
2022/09/15 12:12:21;;;;;;;5.47;2.70;;;;;;;19.93;83.39;98968.41;2829109;83;20974;-85
2022/09/15 12:16:23;;;;;;;4.20;2.58;;;;;;;19.93;83.39;98968.41;2834887;83;21616;-85
2022/09/15 12:20:44;;;;;;;13.10;2.90;;;;;;;20.11;85.16;98971.17;2834048;83;21025;-85
2022/09/15 12:24:59;;;;;;;5.10;2.60;;;;;;;20.14;80.55;98966.38;2813737;82;20982;-85
2022/09/15 12:29:28;;;;;;;3.83;3.00;;;;;;;20.05;80.25;98959.08;2837154;82;21002;-85
2022/09/15 12:33:45;;;;;;;5.97;3.72;;;;;;;20.16;83.79;98961.06;2832556;82;21054;-85
2022/09/15 12:37:56;;;;;;;5.20;3.00;;;;;;;20.36;83.83;98966.27;2777185;83;21038;-85
2022/09/15 12:42:26;;;;;;;12.45;4.92;;;;;;;20.27;79.64;98947.36;2821002;83;21050;-85
2022/09/15 12:46:28;;;;;;;6.92;3.20;;;;;;;20.37;86.20;98954.95;2807239;83;20986;-85
2022/09/15 12:50:36;;;;;;;7.22;3.27;;;;;;;20.39;85.85;98952.86;2836718;82;21085;-85
2022/09/15 12:54:41;;;;;;;5.80;2.83;;;;;;;20.48;83.13;98954.74;2821133;83;21140;-85
2022/09/15 12:58:48;;;;;;;4.60;3.60;;;;;;;20.53;84.80;98950.30;2820009;83;21078;-85
2022/09/15 13:02:50;;;;;;;5.92;3.92;;;;;;;20.57;85.28;98953.38;2819655;83;21082;-85
2022/09/15 13:07:20;;;;;;;7.78;3.77;;;;;;;20.34;82.34;98949.47;2819499;83;21506;-85
2022/09/15 13:11:35;;;;;;;4.15;3.75;;;;;;;20.10;86.04;98954.67;2819975;83;21026;-85
2022/09/15 13:15:46;;;;;;;;;;;;;;;19.48;78.63;98949.92;2822298;83;21093;-85
2022/09/15 13:19:53;;;;;;;4.70;3.20;;;;;;;19.19;77.26;98950.80;2819809;83;20118;-85
2022/09/15 13:23:55;;;;;;;4.87;3.12;;;;;;;18.94;79.68;98950.66;2819190;83;21534;-86
2022/09/15 13:28:01;;;;;;;4.83;2.90;;;;;;;18.73;78.81;98951.78;2835535;82;21278;-86
2022/09/15 13:32:23;;;;;;;4.95;3.10;;;;;;;18.67;81.21;98957.50;2835433;82;21057;-86
2022/09/15 13:36:56;;;;;;;4.90;3.20;;;;;;;18.61;83.30;98952.43;2830490;82;21018;-86
2022/09/15 13:41:31;;;;;;;4.55;3.85;;;;;;;18.80;86.04;98949.89;2833714;82;21042;-85
2022/09/15 13:46:12;;;;;;;4.70;2.75;;;;;;;19.18;84.83;98950.48;2843777;82;21644;-86
2022/09/15 13:50:21;;;;;;;10.68;3.80;;;;;;;19.61;84.25;98934.67;2844223;82;21069;-86
2022/09/15 13:54:22;;;;;;;5.53;3.02;;;;;;;19.82;81.94;98930.25;2844391;82;21132;-86
2022/09/15 13:58:25;;;;;;;2.75;1.92;;;;;;;19.89;79.70;98929.39;2844617;82;20974;-86
2022/09/15 14:02:26;;;;;;;3.27;1.82;;;;;;;19.84;77.42;98927.35;2844255;82;21025;-86
2022/09/15 14:06:44;;;;;;;4.12;2.10;;;;;;;19.89;76.87;98934.80;2844129;82;21005;-86
2022/09/15 14:11:01;;;;;;;4.97;1.98;;;;;;;19.97;80.21;98932.67;2844430;82;21069;-86
2022/09/15 14:15:06;;;;;;;6.08;2.05;;;;;;;20.12;79.51;98931.49;2844692;82;21061;-85
2022/09/15 14:19:35;;;;;;;5.77;2.83;;;;;;;20.06;77.58;98932.39;2835696;82;21002;-86
2022/09/15 14:23:48;;;;;;;3.33;1.80;;;;;;;20.05;77.74;98926.18;2754597;85;21499;-86
2022/09/15 14:27:52;;;;;;;3.05;2.08;;;;;;;20.03;79.19;98936.34;2754018;85;21085;-85
2022/09/15 14:31:58;;;;;;;5.83;2.80;;;;;;;19.94;79.24;98936.33;2732504;86;21009;-86
2022/09/15 14:36:00;;;;;;;8.85;2.87;;;;;;;19.99;81.46;98940.53;2754438;86;21120;-85
2022/09/15 14:40:07;;;;;;;3.85;2.00;;;;;;;19.87;78.03;98938.23;2754154;86;21031;-86
2022/09/15 14:44:39;;;;;;;3.17;2.17;;;;;;;19.91;80.76;98928.65;2738412;86;21029;-85
2022/09/15 14:48:40;;;;;;;3.98;1.37;;;;;;;19.86;79.65;98926.61;2753522;86;21099;-86
2022/09/15 14:52:47;;;;;;;6.62;2.70;;;;;;;19.82;81.88;98924.86;2754391;86;21412;-86
2022/09/15 14:56:50;;;;;;;5.33;2.40;;;;;;;19.77;81.14;98930.64;2752522;85;21032;-85
2022/09/15 15:01:06;;;;;;;8.15;3.20;;;;;;;19.89;83.67;98930.20;2866237;81;21061;-85
2022/09/15 15:05:22;;;;;;;2.72;1.80;;;;;;;20.00;83.65;98936.79;2797414;83;21044;-86
2022/09/15 15:09:27;;;;;;;;;;;;;;;19.95;80.07;98928.53;2798671;83;21171;-86
2022/09/15 15:13:29;;;;;;;2.60;1.37;;;;;;;19.67;78.09;98923.03;2845011;82;20113;-85
2022/09/15 15:17:48;;;;;;;3.35;1.62;;;;;;;19.61;81.67;98930.62;2845165;83;21057;-86
2022/09/15 15:21:49;;;;;;;2.58;1.62;;;;;;;19.42;83.85;98935.94;2844460;82;21046;-86
2022/09/15 15:25:52;;;;;;;5.62;1.98;;;;;;;19.34;83.41;98936.20;2818949;83;21073;-86
2022/09/15 15:29:54;;;;;;;5.15;1.90;;;;;;;19.29;84.68;98934.15;2844812;83;21029;-85
2022/09/15 15:34:05;;;;;;;1.75;1.47;;;;;;;19.09;84.62;98929.70;2842822;82;20978;-85
2022/09/15 15:38:15;;;;;;;5.42;2.47;;;;;;;19.06;84.53;98931.98;2845128;82;21002;-85
2022/09/15 15:42:16;;;;;;;3.67;1.47;;;;;;;18.97;85.38;98932.20;2838689;82;21066;-86
2022/09/15 15:46:40;;;;;;;5.45;1.87;;;;;;;18.94;87.03;98935.84;2821348;83;21046;-86
2022/09/15 15:50:41;;;;;;;3.30;1.85;;;;;;;18.92;88.43;98939.27;2822362;83;20994;-85
2022/09/15 15:54:42;;;;;;;4.40;2.12;;;;;;;18.81;88.75;98938.07;2820073;83;21054;-86
2022/09/15 15:58:44;;;;;;;4.60;2.02;;;;;;;18.65;88.55;98945.58;2821955;83;21521;-85
2022/09/15 16:02:45;;;;;;;3.10;1.92;;;;;;;18.59;88.11;98941.05;2822086;83;21292;-85
2022/09/15 16:06:47;;;;;;;2.20;1.60;;;;;;;18.57;88.86;98948.51;2820479;83;21038;-85
2022/09/15 16:10:49;;;;;;;2.52;1.50;;;;;;;18.40;86.75;98948.95;2821546;84;20998;-85
2022/09/15 16:14:51;;;;;;;3.90;1.40;;;;;;;18.38;81.79;98953.73;2821806;83;21010;-83
2022/09/15 16:18:53;;;;;;;5.85;1.82;;;;;;;18.25;81.51;98962.65;2811758;83;21007;-85
2022/09/15 16:22:54;;;;;;;2.98;1.32;;;;;;;18.16;82.73;98964.42;2821548;83;21062;-83
2022/09/15 16:26:55;;;;;;;2.15;1.72;;;;;;;17.98;82.02;98964.49;2821213;83;21045;-85
2022/09/15 16:30:58;;;;;;;2.92;1.70;;;;;;;17.82;82.37;98959.01;2819865;84;21006;-85
2022/09/15 16:34:59;;;;;;;5.83;2.50;;;;;;;17.75;83.35;98963.03;2821740;83;20990;-84
2022/09/15 16:39:00;;;;;;;3.58;1.98;;;;;;;17.61;85.65;98970.76;2820326;83;20998;-86
2022/09/15 16:43:03;;;;;;;2.00;1.45;;;;;;;17.50;88.79;98970.84;2819990;83;21636;-86
2022/09/15 16:47:05;;;;;;;2.05;1.70;;;;;;;17.51;91.39;98975.19;2821435;83;21379;-86
2022/09/15 16:51:10;;;;;;;5.40;2.15;;;;;;;17.51;91.68;98980.06;2819571;83;21026;-85
2022/09/15 16:55:36;;;;;;;2.25;1.05;;;;;;;17.46;90.16;98970.41;2821499;84;20971;-85
2022/09/15 16:59:37;;;;;;;3.02;1.87;;;;;;;17.52;91.24;98984.41;2820415;83;21070;-84
2022/09/15 17:03:39;;;;;;;3.35;1.62;;;;;;;17.47;91.76;98973.41;2819043;83;21617;-85
2022/09/15 17:07:40;;;;;;;4.22;1.10;;;;;;;17.41;90.38;98978.27;2806083;83;20990;-86
2022/09/15 17:11:41;;;;;;;1.20;1.00;;;;;;;17.38;89.53;98973.30;2820697;84;21033;-85
2022/09/15 17:15:44;;;;;;;2.70;1.87;;;;;;;17.37;89.27;98967.61;2819022;83;21077;-85
2022/09/15 17:19:46;;;;;;;3.33;1.70;;;;;;;17.28;88.56;98981.75;2820764;83;21478;-85
2022/09/15 17:23:48;;;;;;;3.67;1.67;;;;;;;17.32;90.01;98987.55;2820265;83;21026;-86
2022/09/15 17:27:50;;;;;;;1.60;1.50;;;;;;;17.32;91.90;98991.59;2770419;84;21022;-86
2022/09/15 17:31:53;;;;;;;4.97;1.77;;;;;;;17.29;92.92;98991.46;2820498;83;21018;-84
2022/09/15 17:35:54;;;;;;;3.67;3.30;;;;;;;17.24;93.44;98986.69;2770516;83;21022;-84
2022/09/15 17:39:56;;;;;;;2.60;1.87;;;;;;;17.23;91.49;98988.25;2821709;83;21067;-85
2022/09/15 17:43:58;;;;;;;4.97;2.37;;;;;;;17.21;92.13;98993.81;2812146;83;21029;-85
2022/09/15 17:48:01;;;;;;;7.65;2.40;;;;;;;17.16;94.11;99008.38;2803441;84;21570;-85
2022/09/15 17:52:02;;;;;;;4.53;2.20;;;;;;;17.15;94.98;99012.09;2804045;84;21010;-85
2022/09/15 17:56:04;;;;;;;3.45;2.35;;;;;;;17.10;95.83;99011.87;2804289;85;21017;-85
2022/09/15 18:00:09;;;;;;;6.03;3.85;;;;;;;17.06;95.92;99018.64;2804084;85;21002;-85
2022/09/15 18:04:11;;;;;;;8.23;3.58;;;;;;;17.01;96.51;99017.08;2795680;85;20982;-85
2022/09/15 18:08:12;;;;;;;2.55;2.35;;;;;;;16.97;95.46;99028.19;2804114;84;21343;-85
2022/09/15 18:12:13;;;;;;;3.80;2.40;;;;;;;16.96;94.78;99023.00;2804029;83;20982;-86
2022/09/15 18:16:15;;;;;;;2.95;1.95;;;;;;;16.89;93.82;99027.52;2803826;84;21883;-86
2022/09/15 18:20:20;;;;;;;3.95;2.72;;;;;;;16.83;93.81;99036.69;2804058;83;21050;-86
2022/09/15 18:24:22;;;;;;;3.45;2.35;;;;;;;16.80;94.48;99036.25;2803962;83;21073;-85
2022/09/15 18:28:23;;;;;;;5.05;2.22;;;;;;;16.73;94.77;99040.77;2803776;85;21021;-85
2022/09/15 18:32:24;;;;;;;6.20;3.62;;;;;;;16.65;95.27;99039.05;2802730;83;21032;-85
2022/09/15 18:36:25;;;;;;;6.00;3.27;;;;;;;16.56;96.43;99047.23;2803564;83;21014;-85
2022/09/15 18:40:27;;;;;;;4.87;3.22;;;;;;;16.48;96.75;99052.77;2803810;83;21006;-85
2022/09/15 18:44:28;;;;;;;4.58;2.70;;;;;;;16.38;97.18;99052.25;2783559;83;21037;-86
2022/09/15 18:48:29;;;;;;;6.92;3.80;;;;;;;16.31;97.02;99049.55;2803879;83;21026;-85
2022/09/15 18:52:37;;;;;;;4.58;3.20;;;;;;;16.16;97.43;99054.15;2803553;83;21076;-85
2022/09/15 18:56:38;;;;;;;3.83;3.08;;;;;;;16.06;97.74;99052.61;2803809;83;21008;-85
2022/09/15 19:00:40;;;;;;;6.45;2.85;;;;;;;15.95;98.56;99061.18;2803752;83;21053;-85
2022/09/15 19:04:41;;;;;;;3.70;3.40;;;;;;;15.90;98.82;99068.94;2803440;83;20998;-85
2022/09/15 19:08:43;;;;;;;5.47;3.98;;;;;;;15.88;98.72;99069.12;2803395;83;21029;-85
2022/09/15 19:12:44;;;;;;;4.60;3.33;;;;;;;15.83;98.81;99067.00;2803167;83;21171;-85
2022/09/15 19:16:46;;;;;;;7.12;2.42;;;;;;;15.87;98.70;99065.27;2803795;83;21501;-85
2022/09/15 19:20:47;;;;;;;6.55;3.25;;;;;;;15.84;98.15;99061.95;2803795;83;20997;-86
2022/09/15 19:24:49;;;;;;;4.85;2.72;;;;;;;15.78;97.97;99061.88;2770995;83;21010;-84